Impacts TAF Board INFO
FOR SITUATIONAL AWARENESS. NOT TO BE USED FOR FLIGHT PLANNING PURPOSES.
IDs:

KEET - Alabaster/Shelby Cnt, AL, US

Issued at 1127 UTC 19 Jan 2018
Updated at 1529 UTC 19 Jan 2018
Potential Impact None Slight Moderate High
Time1453Z 19/16Z 19/17Z 19/18Z 19/19Z 19/20Z 19/21Z 19/22Z 19/23Z 20/00Z 20/01Z 20/02Z 20/03Z 20/04Z>>
Type OBS PRVL PRVL PRVL PRVL PRVL PRVL PRVL PRVL PRVL PRVL PRVL PRVL PRVL
VIS 10 >6 >6 >6 >6 >6 >6 >6 >6 >6 >6 >6 >6 >6
CIG -- -- -- -- -- -- -- -- -- -- -- -- -- --
Cover CLR SKC SKC SKC SKC SKC SKC SKC SKC SKC SKC SKC SKC SKC
FltCat VFR VFR VFR VFR VFR VFR VFR VFR VFR VFR VFR VFR VFR VFR
WX -- -- -- -- -- -- -- -- -- -- -- -- -- --
WDir VRB VRB 260 260 260 260 260 260 260 VRB VRB VRB VRB VRB
WSpd 0 0 6 6 6 6 6 6 6 0 0 0 0 0
WGst -- -- -- -- -- -- -- -- -- -- -- -- -- --

Raw TAF
KEET 191127Z 1912/2012 00000KT P6SM SKC
  FM191700 26006KT P6SM SKC
  FM200000 00000KT P6SM SKC


Raw METAR
KEET 191453Z AUTO 00000KT 10SM CLR 01/M07 A3038 RMK AO2 SLP293 T00061067 51015
KEET 191353Z AUTO 00000KT 10SM CLR M04/M07 A3037 RMK AO2 SLP290 T10441067
KEET 191253Z AUTO 00000KT 10SM CLR M07/M09 A3035 RMK AO2 SLP285 T10721089

METAR Board
Radar Display
Forecast Discussion

FOR SITUATIONAL AWARENESS. NOT TO BE USED FOR FLIGHT PLANNING PURPOSES.